Time;durP1;ratioP1;P1;durP2;ratioP2;P2;SDS_P1;SDS_P2;PMS_P1;PMS_P2;Temp;Humidity;BMP_temperature;BMP_pressure;BME280_temperature;BME280_humidity;BME280_pressure;Samples;Min_cycle;Max_cycle;Signal;HPM_P1;HPM_P2
2022/07/01 00:00:21;;;;;;;5.30;4.80;;;;;;;;;;4958103;28;20280;-79
2022/07/01 00:02:51;;;;;;;6.00;5.50;;;;;;;;;;4958107;28;20238;-78
2022/07/01 00:05:20;;;;;;;5.93;5.43;;;;;;;;;;4958273;28;20218;-78
2022/07/01 00:07:48;;;;;;;6.32;5.50;;;;;;;;;;4958098;28;20211;-79
2022/07/01 00:10:17;;;;;;;6.07;5.57;;;;;;;;;;4958095;28;20214;-79
2022/07/01 00:12:46;;;;;;;7.47;6.87;;;;;;;;;;4958038;28;20211;-78
2022/07/01 00:15:15;;;;;;;7.10;6.50;;;;;;;;;;4958191;28;20227;-78
2022/07/01 00:17:44;;;;;;;7.93;7.23;;;;;;;;;;4958781;28;20206;-79
2022/07/01 00:20:14;;;;;;;7.93;7.23;;;;;;;;;;4957962;28;20217;-79
2022/07/01 00:22:42;;;;;;;7.13;6.53;;;;;;;;;;4958198;28;20273;-79
2022/07/01 00:25:11;;;;;;;7.33;6.63;;;;;;;;;;4958206;28;20234;-79
2022/07/01 00:27:40;;;;;;;7.03;6.30;;;;;;;;;;4958181;28;20211;-79
2022/07/01 00:30:09;;;;;;;6.47;5.87;;;;;;;;;;4958417;28;20209;-79
2022/07/01 00:32:38;;;;;;;6.70;6.10;;;;;;;;;;4958133;28;20692;-80
2022/07/01 00:35:07;;;;;;;5.97;5.47;;;;;;;;;;4959664;28;20603;-80
2022/07/01 00:37:37;;;;;;;6.73;6.10;;;;;;;;;;4958473;28;20652;-80
2022/07/01 00:40:06;;;;;;;6.50;5.90;;;;;;;;;;4959559;28;20191;-79
2022/07/01 00:42:35;;;;;;;7.03;6.33;;;;;;;;;;4970633;28;20226;-80
2022/07/01 00:45:03;;;;;;;8.03;6.13;;;;;;;;;;4976520;28;20207;-80
2022/07/01 00:47:32;;;;;;;6.77;6.13;;;;;;;;;;4973010;28;20199;-79
2022/07/01 00:50:01;;;;;;;7.30;6.50;;;;;;;;;;4973636;28;20237;-80
2022/07/01 00:52:29;;;;;;;8.17;6.87;;;;;;;;;;4978076;28;20201;-80
2022/07/01 00:55:01;;;;;;;7.50;6.90;;;;;;;;;;4973707;28;20226;-80
2022/07/01 00:57:32;;;;;;;7.50;6.80;;;;;;;;;;4975939;28;20187;-80
2022/07/01 01:00:02;;;;;;;7.07;6.37;;;;;;;;;;4956915;28;20191;-76
2022/07/01 01:02:31;;;;;;;6.67;6.07;;;;;;;;;;4956751;29;20287;-76
2022/07/01 01:05:00;;;;;;;6.77;6.00;;;;;;;;;;4957403;28;20226;-76
2022/07/01 01:07:28;;;;;;;8.57;6.47;;;;;;;;;;4956829;28;20194;-76
2022/07/01 01:09:57;;;;;;;7.77;6.93;;;;;;;;;;4956998;29;20210;-76
2022/07/01 01:12:28;;;;;;;7.37;6.63;;;;;;;;;;4956512;28;20199;-76
2022/07/01 01:14:57;;;;;;;8.23;5.87;;;;;;;;;;4956718;28;20715;-76
2022/07/01 01:17:26;;;;;;;7.47;6.20;;;;;;;;;;4956917;28;20233;-76
2022/07/01 01:19:54;;;;;;;6.30;5.70;;;;;;;;;;4956338;28;20210;-76
2022/07/01 01:22:24;;;;;;;7.00;5.57;;;;;;;;;;4956310;28;20261;-76
2022/07/01 01:24:52;;;;;;;6.60;5.40;;;;;;;;;;4956447;28;20227;-75
2022/07/01 01:27:21;;;;;;;7.73;5.13;;;;;;;;;;4955723;28;20202;-76
2022/07/01 01:29:49;;;;;;;5.37;4.87;;;;;;;;;;4956599;28;20202;-76
2022/07/01 01:32:18;;;;;;;4.47;4.07;;;;;;;;;;4956324;28;20222;-76
2022/07/01 01:34:46;;;;;;;4.87;4.20;;;;;;;;;;4956331;28;20338;-76
2022/07/01 01:37:15;;;;;;;4.40;3.80;;;;;;;;;;4956188;28;20210;-76
2022/07/01 01:39:44;;;;;;;5.20;4.50;;;;;;;;;;4956511;28;20265;-76
2022/07/01 01:42:13;;;;;;;4.50;3.80;;;;;;;;;;4952930;28;20217;-75
2022/07/01 01:44:41;;;;;;;4.50;4.07;;;;;;;;;;4936724;29;20235;-76
2022/07/01 01:47:10;;;;;;;4.90;4.30;;;;;;;;;;4937165;29;20207;-76
2022/07/01 01:49:38;;;;;;;4.83;4.03;;;;;;;;;;4936455;29;20218;-76
2022/07/01 01:52:07;;;;;;;5.87;4.57;;;;;;;;;;4937464;29;20546;-76
2022/07/01 01:54:36;;;;;;;7.33;5.27;;;;;;;;;;4936673;29;20271;-76
2022/07/01 01:57:07;;;;;;;6.53;5.93;;;;;;;;;;4936834;29;20290;-75
2022/07/01 01:59:35;;;;;;;6.80;6.20;;;;;;;;;;4936962;29;20203;-76
2022/07/01 02:02:05;;;;;;;7.23;5.57;;;;;;;;;;4936767;29;20269;-76
2022/07/01 02:04:33;;;;;;;7.07;6.37;;;;;;;;;;4936471;29;20227;-76
2022/07/01 02:07:02;;;;;;;6.73;5.50;;;;;;;;;;4936670;29;20356;-75
2022/07/01 02:09:30;;;;;;;5.77;5.27;;;;;;;;;;4936733;29;20230;-76
2022/07/01 02:11:59;;;;;;;5.93;5.10;;;;;;;;;;4947926;29;20217;-76
2022/07/01 02:14:29;;;;;;;9.87;5.40;;;;;;;;;;4955538;28;20226;-76
2022/07/01 02:16:57;;;;;;;7.33;5.57;;;;;;;;;;4955387;28;20207;-76
2022/07/01 02:19:25;;;;;;;6.47;4.77;;;;;;;;;;4955944;28;20265;-76
2022/07/01 02:21:54;;;;;;;4.50;4.10;;;;;;;;;;4955582;28;20281;-76
2022/07/01 02:24:22;;;;;;;4.67;4.17;;;;;;;;;;4955196;28;20284;-76
2022/07/01 02:26:51;;;;;;;5.07;4.10;;;;;;;;;;4954819;28;20210;-76
2022/07/01 02:29:19;;;;;;;3.90;3.57;;;;;;;;;;4954956;28;20242;-76
2022/07/01 02:31:49;;;;;;;4.10;3.80;;;;;;;;;;4955627;28;20679;-76
2022/07/01 02:34:17;;;;;;;5.57;3.70;;;;;;;;;;4954452;28;20222;-74
2022/07/01 02:36:46;;;;;;;5.00;3.60;;;;;;;;;;4955161;28;20218;-76
2022/07/01 02:39:14;;;;;;;3.60;3.30;;;;;;;;;;4955594;28;20206;-76
2022/07/01 02:44:25;;;;;;;3.77;3.10;;;;;;;;;;4950395;28;20234;-76
2022/07/01 02:46:55;;;;;;;3.60;3.30;;;;;;;;;;4955238;28;20206;-76
2022/07/01 02:49:23;;;;;;;4.20;3.77;;;;;;;;;;4955161;29;20630;-76
2022/07/01 02:51:52;;;;;;;3.80;3.40;;;;;;;;;;4955124;28;20218;-76
2022/07/01 02:54:20;;;;;;;4.17;3.30;;;;;;;;;;4954190;28;20274;-76
2022/07/01 02:56:49;;;;;;;3.80;3.33;;;;;;;;;;4954944;28;20813;-76
2022/07/01 02:59:17;;;;;;;3.80;3.40;;;;;;;;;;4955155;28;20202;-75
2022/07/01 03:01:46;;;;;;;3.83;2.70;;;;;;;;;;4955356;29;20209;-76
2022/07/01 03:04:16;;;;;;;3.50;3.00;;;;;;;;;;4955048;29;20227;-76
2022/07/01 03:06:44;;;;;;;4.80;2.90;;;;;;;;;;4955093;29;20210;-76
2022/07/01 03:09:13;;;;;;;3.07;2.77;;;;;;;;;;4954140;28;20206;-76
2022/07/01 03:11:41;;;;;;;5.23;2.97;;;;;;;;;;4954999;28;20240;-76
2022/07/01 03:14:09;;;;;;;4.30;3.00;;;;;;;;;;4955163;28;20262;-76
2022/07/01 03:16:38;;;;;;;4.03;2.80;;;;;;;;;;4955200;28;20206;-76
2022/07/01 03:19:07;;;;;;;3.10;2.80;;;;;;;;;;4954686;29;20245;-75
2022/07/01 03:21:36;;;;;;;3.63;2.97;;;;;;;;;;4954946;29;20293;-76
2022/07/01 03:24:05;;;;;;;3.30;2.80;;;;;;;;;;4954876;29;20570;-76
2022/07/01 03:26:33;;;;;;;5.07;3.07;;;;;;;;;;4954531;28;20207;-76
2022/07/01 03:29:06;;;;;;;4.27;2.83;;;;;;;;;;4955013;29;20215;-76
2022/07/01 03:31:34;;;;;;;4.53;2.87;;;;;;;;;;4955093;28;20261;-76
2022/07/01 03:34:03;;;;;;;5.33;3.07;;;;;;;;;;4955386;29;20203;-76
2022/07/01 03:36:31;;;;;;;5.37;2.87;;;;;;;;;;4954936;28;20213;-76
2022/07/01 03:39:03;;;;;;;4.60;2.70;;;;;;;;;;4954758;29;20679;-76
2022/07/01 03:41:31;;;;;;;4.10;2.63;;;;;;;;;;4954825;28;20191;-76
2022/07/01 03:44:00;;;;;;;3.13;2.53;;;;;;;;;;4954828;28;20285;-76
2022/07/01 03:46:31;;;;;;;4.70;3.00;;;;;;;;;;4957234;28;20261;-76
2022/07/01 03:48:59;;;;;;;5.93;3.07;;;;;;;;;;4958878;29;20186;-76
2022/07/01 03:51:28;;;;;;;3.80;3.00;;;;;;;;;;4958276;28;20214;-76
2022/07/01 03:56:44;;;;;;;3.50;3.17;;;;;;;;;;4958153;28;20206;-76
2022/07/01 03:59:12;;;;;;;9.03;3.47;;;;;;;;;;4958453;29;20266;-76
2022/07/01 04:01:40;;;;;;;4.33;3.47;;;;;;;;;;4957744;28;20223;-76
2022/07/01 04:04:09;;;;;;;3.60;3.30;;;;;;;;;;4957858;28;20210;-76
2022/07/01 04:06:38;;;;;;;4.13;3.40;;;;;;;;;;4957967;29;20209;-76
2022/07/01 04:09:07;;;;;;;4.70;3.33;;;;;;;;;;4958209;28;20211;-76
2022/07/01 04:11:35;;;;;;;5.47;3.60;;;;;;;;;;4957788;28;20726;-76
2022/07/01 04:14:05;;;;;;;4.00;3.33;;;;;;;;;;4957970;28;20209;-76
2022/07/01 04:16:33;;;;;;;3.93;3.40;;;;;;;;;;4957736;28;20211;-76
2022/07/01 04:19:02;;;;;;;5.73;3.80;;;;;;;;;;4957723;28;20238;-76
2022/07/01 04:24:17;;;;;;;4.30;3.77;;;;;;;;;;4957685;28;20191;-76
2022/07/01 04:26:45;;;;;;;6.03;3.90;;;;;;;;;;4957506;28;20218;-76
2022/07/01 04:29:15;;;;;;;7.83;4.20;;;;;;;;;;4957842;28;20550;-76
2022/07/01 04:31:43;;;;;;;4.83;4.33;;;;;;;;;;4957629;28;20613;-76
2022/07/01 04:34:12;;;;;;;4.97;4.07;;;;;;;;;;4958168;28;20258;-76
2022/07/01 04:36:40;;;;;;;4.90;4.40;;;;;;;;;;4956983;28;20211;-76
2022/07/01 04:39:10;;;;;;;5.77;4.87;;;;;;;;;;4957327;28;20241;-76
2022/07/01 04:44:26;;;;;;;5.73;5.13;;;;;;;;;;4957187;28;20237;-76
2022/07/01 04:46:54;;;;;;;6.10;5.50;;;;;;;;;;4957163;28;20217;-76
2022/07/01 04:49:22;;;;;;;7.67;5.43;;;;;;;;;;4957087;28;20207;-76
2022/07/01 04:51:52;;;;;;;9.13;6.20;;;;;;;;;;4958247;29;20221;-76
2022/07/01 04:54:23;;;;;;;7.10;6.00;;;;;;;;;;4965362;29;20231;-76
2022/07/01 04:56:52;;;;;;;7.70;6.90;;;;;;;;;;4957574;28;20632;-76
2022/07/01 04:59:21;;;;;;;7.60;6.90;;;;;;;;;;4962628;28;20675;-76
2022/07/01 05:01:50;;;;;;;7.20;6.50;;;;;;;;;;4956937;28;20211;-76
2022/07/01 05:04:19;;;;;;;7.57;6.83;;;;;;;;;;4956975;28;20226;-76
2022/07/01 05:06:48;;;;;;;8.27;7.20;;;;;;;;;;4956384;28;20258;-76
2022/07/01 05:09:16;;;;;;;7.90;7.30;;;;;;;;;;4956693;28;20219;-76
2022/07/01 05:11:45;;;;;;;7.70;6.93;;;;;;;;;;4956669;28;20210;-76
2022/07/01 05:14:13;;;;;;;7.23;6.53;;;;;;;;;;4956585;28;20209;-76
2022/07/01 05:16:42;;;;;;;7.67;6.73;;;;;;;;;;4956472;28;20206;-76
2022/07/01 05:21:58;;;;;;;8.40;7.60;;;;;;;;;;4956875;28;20198;-76
2022/07/01 05:24:28;;;;;;;8.40;7.67;;;;;;;;;;4956444;28;20237;-76
2022/07/01 05:26:57;;;;;;;9.77;7.43;;;;;;;;;;4956264;29;20218;-76
2022/07/01 05:29:25;;;;;;;8.63;7.83;;;;;;;;;;4956290;28;20213;-76
2022/07/01 05:31:54;;;;;;;8.50;7.70;;;;;;;;;;4956310;28;20213;-76
2022/07/01 05:34:24;;;;;;;8.33;6.93;;;;;;;;;;4956270;28;20230;-76
2022/07/01 05:36:52;;;;;;;8.47;7.57;;;;;;;;;;4955868;28;20199;-76
2022/07/01 05:39:21;;;;;;;8.57;7.77;;;;;;;;;;4956363;28;20646;-76
2022/07/01 05:41:50;;;;;;;8.23;7.53;;;;;;;;;;4956172;28;20210;-76
2022/07/01 05:44:18;;;;;;;8.03;7.23;;;;;;;;;;4956253;28;20612;-76
2022/07/01 05:46:46;;;;;;;10.73;7.80;;;;;;;;;;4956141;28;20230;-76
2022/07/01 05:49:15;;;;;;;8.30;7.33;;;;;;;;;;4954218;28;20706;-77
2022/07/01 05:51:47;;;;;;;8.50;7.70;;;;;;;;;;4956443;29;20222;-76
2022/07/01 05:54:15;;;;;;;7.93;7.17;;;;;;;;;;4940560;28;20574;-76
2022/07/01 05:56:44;;;;;;;9.80;8.03;;;;;;;;;;4936640;29;20210;-76
2022/07/01 05:59:12;;;;;;;8.20;7.40;;;;;;;;;;4937021;29;20262;-76
2022/07/01 06:01:40;;;;;;;9.30;7.77;;;;;;;;;;4936957;29;20211;-76
2022/07/01 06:04:09;;;;;;;9.67;8.33;;;;;;;;;;4949036;29;20210;-76
2022/07/01 06:06:37;;;;;;;8.70;7.90;;;;;;;;;;4955183;29;20230;-76
2022/07/01 06:09:07;;;;;;;9.30;8.47;;;;;;;;;;4955851;28;20238;-76
2022/07/01 06:11:36;;;;;;;10.37;9.20;;;;;;;;;;4955257;29;20214;-76
2022/07/01 06:14:04;;;;;;;10.13;9.20;;;;;;;;;;4955664;28;20206;-76
2022/07/01 06:16:32;;;;;;;11.77;10.23;;;;;;;;;;4955449;29;20213;-77
2022/07/01 06:19:01;;;;;;;10.67;9.50;;;;;;;;;;4954904;28;20218;-76
2022/07/01 06:21:30;;;;;;;10.77;9.77;;;;;;;;;;4955958;28;20556;-76
2022/07/01 06:23:58;;;;;;;11.37;10.37;;;;;;;;;;4955627;28;20214;-76
2022/07/01 06:26:28;;;;;;;11.47;10.30;;;;;;;;;;4955581;28;20229;-76
2022/07/01 06:28:57;;;;;;;11.70;10.60;;;;;;;;;;4955445;28;20565;-76
2022/07/01 06:31:25;;;;;;;11.13;10.03;;;;;;;;;;4955602;28;20266;-76
2022/07/01 06:33:54;;;;;;;11.50;10.60;;;;;;;;;;4954548;28;20639;-77
2022/07/01 06:36:22;;;;;;;11.33;10.33;;;;;;;;;;4955413;28;20206;-77
2022/07/01 06:38:51;;;;;;;12.63;11.33;;;;;;;;;;4955240;28;20214;-76
2022/07/01 06:41:28;;;;;;;12.47;11.30;;;;;;;;;;4955550;28;20656;-76
2022/07/01 06:43:59;;;;;;;12.30;11.10;;;;;;;;;;4955010;28;20210;-76
2022/07/01 06:46:28;;;;;;;11.73;10.73;;;;;;;;;;4954482;28;20691;-76
2022/07/01 06:48:58;;;;;;;11.60;10.60;;;;;;;;;;4938517;29;20230;-76
2022/07/01 06:51:26;;;;;;;12.03;10.93;;;;;;;;;;4955116;28;20249;-77
2022/07/01 06:53:55;;;;;;;13.10;11.90;;;;;;;;;;4953760;28;20293;-77
2022/07/01 06:56:23;;;;;;;14.23;12.73;;;;;;;;;;4954896;28;20250;-76
2022/07/01 06:58:52;;;;;;;13.43;12.23;;;;;;;;;;4954862;29;20217;-76
2022/07/01 07:01:22;;;;;;;13.80;12.50;;;;;;;;;;4954287;29;20207;-76
2022/07/01 07:03:50;;;;;;;14.77;13.27;;;;;;;;;;4954910;28;20206;-76
2022/07/01 07:06:19;;;;;;;14.97;13.50;;;;;;;;;;4955051;28;20658;-76
2022/07/01 07:08:47;;;;;;;15.53;14.03;;;;;;;;;;4954528;28;20210;-76
2022/07/01 07:11:16;;;;;;;15.77;14.37;;;;;;;;;;4954877;29;20667;-76
2022/07/01 07:13:44;;;;;;;16.20;14.50;;;;;;;;;;4955287;29;20225;-77
2022/07/01 07:16:13;;;;;;;15.93;14.43;;;;;;;;;;4940241;28;20638;-76
2022/07/01 07:18:42;;;;;;;15.60;14.17;;;;;;;;;;4943505;29;20211;-76
2022/07/01 07:21:11;;;;;;;16.43;14.83;;;;;;;;;;4957621;28;20655;-77
2022/07/01 07:23:41;;;;;;;16.20;14.50;;;;;;;;;;4958633;28;20206;-76
2022/07/01 07:26:10;;;;;;;17.13;15.27;;;;;;;;;;4958595;29;20657;-76
2022/07/01 07:28:38;;;;;;;17.13;15.63;;;;;;;;;;4958783;28;20232;-77
2022/07/01 07:31:11;;;;;;;17.83;15.97;;;;;;;;;;4958301;29;20207;-76
2022/07/01 07:33:39;;;;;;;18.47;16.67;;;;;;;;;;4958392;29;20206;-77
2022/07/01 07:36:09;;;;;;;18.00;16.27;;;;;;;;;;4958700;28;20720;-76
2022/07/01 07:38:38;;;;;;;16.30;14.80;;;;;;;;;;4959042;28;20687;-76
2022/07/01 07:41:07;;;;;;;17.27;15.60;;;;;;;;;;4958498;28;20213;-76
2022/07/01 07:43:35;;;;;;;17.33;15.53;;;;;;;;;;4958763;28;20205;-77
2022/07/01 07:46:04;;;;;;;19.70;17.80;;;;;;;;;;4958551;28;20226;-76
2022/07/01 07:48:33;;;;;;;19.87;18.07;;;;;;;;;;4939535;29;20672;-77
2022/07/01 07:51:01;;;;;;;19.50;17.50;;;;;;;;;;4939159;29;20215;-76
2022/07/01 07:53:31;;;;;;;19.80;17.87;;;;;;;;;;4939482;29;20298;-77
2022/07/01 07:56:00;;;;;;;20.00;18.00;;;;;;;;;;4938903;29;20231;-76
2022/07/01 07:58:29;;;;;;;20.80;17.63;;;;;;;;;;4939388;29;20635;-77
2022/07/01 08:00:57;;;;;;;19.63;17.83;;;;;;;;;;4939534;29;20206;-76
2022/07/01 08:03:26;;;;;;;19.57;17.57;;;;;;;;;;4939046;29;20214;-76
2022/07/01 08:05:54;;;;;;;18.57;16.70;;;;;;;;;;4939856;29;20774;-74
2022/07/01 08:08:23;;;;;;;18.83;16.80;;;;;;;;;;4938956;29;20231;-74
2022/07/01 08:10:53;;;;;;;18.30;16.60;;;;;;;;;;4939252;29;20207;-75
2022/07/01 08:13:21;;;;;;;18.13;16.43;;;;;;;;;;4939430;29;20203;-75
2022/07/01 08:15:50;;;;;;;17.43;15.83;;;;;;;;;;4941907;29;20284;-75
2022/07/01 08:18:18;;;;;;;18.20;16.47;;;;;;;;;;4958351;28;20210;-75
2022/07/01 08:20:47;;;;;;;17.83;16.13;;;;;;;;;;4958472;28;20246;-75
2022/07/01 08:23:15;;;;;;;16.90;15.10;;;;;;;;;;4957923;28;20202;-74
2022/07/01 08:25:44;;;;;;;16.60;15.10;;;;;;;;;;4957578;28;20715;-74
2022/07/01 08:28:13;;;;;;;17.13;15.63;;;;;;;;;;4958055;28;20230;-74
2022/07/01 08:30:42;;;;;;;18.53;16.73;;;;;;;;;;4957021;28;20214;-75
2022/07/01 08:33:10;;;;;;;18.40;16.60;;;;;;;;;;4956614;28;20297;-75
2022/07/01 08:35:39;;;;;;;17.47;15.77;;;;;;;;;;4957703;29;20730;-74
2022/07/01 08:38:08;;;;;;;17.57;15.87;;;;;;;;;;4957742;29;20261;-74
2022/07/01 08:40:37;;;;;;;18.80;16.90;;;;;;;;;;4957626;28;20211;-75
2022/07/01 08:43:06;;;;;;;17.83;15.93;;;;;;;;;;4957876;29;20241;-75
2022/07/01 08:45:37;;;;;;;17.57;15.87;;;;;;;;;;4957033;29;20229;-75
2022/07/01 08:48:07;;;;;;;17.77;16.07;;;;;;;;;;4957578;29;20637;-75
2022/07/01 08:50:36;;;;;;;17.43;15.80;;;;;;;;;;4957469;28;20218;-74
2022/07/01 08:53:05;;;;;;;17.23;15.63;;;;;;;;;;4957443;28;20218;-74
2022/07/01 08:56:40;;;;;;;18.20;16.33;;;;;;;;;;4956848;28;20233;-75
2022/07/01 08:58:22;;;;;;;18.40;16.57;;;;;;;;;;4957072;28;20664;-74
2022/07/01 09:00:52;;;;;;;17.73;16.03;;;;;;;;;;4957107;28;20217;-74
2022/07/01 09:03:27;;;;;;;18.13;16.30;;;;;;;;;;4957274;28;20203;-74
2022/07/01 09:05:56;;;;;;;17.33;15.63;;;;;;;;;;4956808;29;20274;-75
2022/07/01 09:08:28;;;;;;;18.53;16.53;;;;;;;;;;4956713;29;20230;-74
2022/07/01 09:10:57;;;;;;;18.60;16.80;;;;;;;;;;4957162;28;20632;-75
2022/07/01 09:13:25;;;;;;;17.57;15.50;;;;;;;;;;4956704;28;20206;-74
2022/07/01 09:15:57;;;;;;;17.20;15.60;;;;;;;;;;4956061;28;20231;-74
2022/07/01 09:18:26;;;;;;;18.00;15.73;;;;;;;;;;4956712;28;20202;-75
2022/07/01 09:20:54;;;;;;;16.20;14.60;;;;;;;;;;4956545;28;20214;-74
2022/07/01 09:23:23;;;;;;;17.27;15.63;;;;;;;;;;4956479;28;20214;-74
2022/07/01 09:25:52;;;;;;;16.90;15.20;;;;;;;;;;4956621;28;20237;-74
2022/07/01 09:28:24;;;;;;;16.70;15.00;;;;;;;;;;4956371;28;20233;-74
2022/07/01 09:30:54;;;;;;;16.87;15.17;;;;;;;;;;4955630;28;20211;-74
2022/07/01 09:33:24;;;;;;;15.13;13.63;;;;;;;;;;4956514;28;20676;-74
2022/07/01 09:35:54;;;;;;;15.23;13.83;;;;;;;;;;4956349;28;20226;-74
2022/07/01 09:38:23;;;;;;;15.60;14.10;;;;;;;;;;4956414;28;20664;-74
2022/07/01 09:41:00;;;;;;;15.13;13.57;;;;;;;;;;4956495;28;20244;-74
2022/07/01 09:43:31;;;;;;;15.13;13.53;;;;;;;;;;4957510;28;20755;-74
2022/07/01 09:46:04;;;;;;;14.30;12.80;;;;;;;;;;4959447;28;20225;-74
2022/07/01 09:48:46;;;;;;;13.40;12.13;;;;;;;;;;4957434;29;20595;-74
2022/07/01 09:51:16;;;;;;;14.00;12.60;;;;;;;;;;4937015;29;20704;-74
2022/07/01 09:53:45;;;;;;;12.83;11.63;;;;;;;;;;4936785;29;20233;-74
2022/07/01 09:56:13;;;;;;;14.03;12.60;;;;;;;;;;4936877;29;20748;-75
2022/07/01 09:58:43;;;;;;;13.17;11.87;;;;;;;;;;4943685;29;20202;-74
2022/07/01 10:01:12;;;;;;;12.70;11.50;;;;;;;;;;4955909;28;20213;-74
2022/07/01 10:03:41;;;;;;;12.70;11.50;;;;;;;;;;4956015;29;20206;-74
2022/07/01 10:06:20;;;;;;;13.93;12.63;;;;;;;;;;4955279;28;20226;-74
2022/07/01 10:08:54;;;;;;;12.13;10.90;;;;;;;;;;4955693;28;20320;-74
2022/07/01 10:11:45;;;;;;;10.73;9.73;;;;;;;;;;4955837;29;20225;-74
2022/07/01 10:14:14;;;;;;;9.97;9.07;;;;;;;;;;4955594;28;20581;-74
2022/07/01 10:16:48;;;;;;;11.13;10.13;;;;;;;;;;4955599;28;20202;-74
2022/07/01 10:19:27;;;;;;;10.50;9.50;;;;;;;;;;4955906;29;20205;-74
2022/07/01 10:22:01;;;;;;;10.30;9.13;;;;;;;;;;4955600;28;20226;-74
2022/07/01 10:24:30;;;;;;;10.25;9.35;;;;;;;;;;4954774;28;20277;-74
2022/07/01 10:27:02;;;;;;;9.30;8.40;;;;;;;;;;4955151;28;20632;-75
2022/07/01 10:29:31;;;;;;;9.02;8.23;;;;;;;;;;4955219;28;20234;-74
2022/07/01 10:32:01;;;;;;;8.65;7.75;;;;;;;;;;4955449;28;20206;-74
2022/07/01 10:34:37;;;;;;;8.65;7.90;;;;;;;;;;4955806;29;20707;-74
2022/07/01 10:37:08;;;;;;;8.32;7.47;;;;;;;;;;4955538;29;20261;-74
2022/07/01 10:39:55;;;;;;;10.05;7.63;;;;;;;;;;4954329;28;20209;-74
2022/07/01 10:42:28;;;;;;;8.23;7.40;;;;;;;;;;4954615;28;20206;-74
2022/07/01 10:45:07;;;;;;;8.20;7.50;;;;;;;;;;4955136;28;20230;-74
2022/07/01 10:47:36;;;;;;;6.50;5.90;;;;;;;;;;4955059;29;20214;-74
2022/07/01 10:50:06;;;;;;;6.05;5.55;;;;;;;;;;4954405;28;20737;-75
2022/07/01 10:52:35;;;;;;;5.82;5.15;;;;;;;;;;4954452;28;20211;-74
2022/07/01 10:55:05;;;;;;;6.32;5.65;;;;;;;;;;4935335;28;20586;-74
2022/07/01 10:57:35;;;;;;;6.00;5.40;;;;;;;;;;4935951;29;20672;-73
2022/07/01 11:00:22;;;;;;;5.95;5.20;;;;;;;;;;4936479;28;20203;-74
2022/07/01 11:02:50;;;;;;;5.40;4.82;;;;;;;;;;4938605;29;20217;-74
2022/07/01 11:05:19;;;;;;;5.43;4.90;;;;;;;;;;4955096;29;20234;-74
2022/07/01 11:07:49;;;;;;;5.68;4.90;;;;;;;;;;4955145;28;20206;-74
2022/07/01 11:10:19;;;;;;;6.35;5.13;;;;;;;;;;4954145;28;20206;-74
2022/07/01 11:12:49;;;;;;;7.60;5.65;;;;;;;;;;4954908;29;20690;-74
2022/07/01 11:15:18;;;;;;;6.13;5.13;;;;;;;;;;4955042;28;20226;-74
2022/07/01 11:17:48;;;;;;;7.07;5.43;;;;;;;;;;4954899;29;20214;-74
2022/07/01 11:20:16;;;;;;;4.70;4.30;;;;;;;;;;4954864;28;20206;-74
2022/07/01 11:22:51;;;;;;;5.38;4.13;;;;;;;;;;4954908;28;20664;-74
2022/07/01 11:25:21;;;;;;;4.85;4.05;;;;;;;;;;4953313;28;20222;-74
2022/07/01 11:27:51;;;;;;;4.30;3.95;;;;;;;;;;4954752;28;20210;-74
2022/07/01 11:30:22;;;;;;;5.68;5.10;;;;;;;;;;4954986;28;20238;-74
2022/07/01 11:32:54;;;;;;;4.22;3.92;;;;;;;;;;4954905;29;20226;-73
2022/07/01 11:41:03;;;;;;;3.97;3.28;;;;;;;;;;4953972;28;20214;-74
2022/07/01 11:43:33;;;;;;;4.82;3.25;;;;;;;;;;4954749;29;20672;-73
2022/07/01 11:46:04;;;;;;;3.95;3.35;;;;;;;;;;4954462;28;20231;-74
2022/07/01 11:48:36;;;;;;;4.30;3.10;;;;;;;;;;4954853;29;20234;-74
2022/07/01 11:51:11;;;;;;;4.65;3.20;;;;;;;;;;4936175;29;20262;-74
2022/07/01 11:53:43;;;;;;;5.05;2.83;;;;;;;;;;4935614;29;20214;-73
2022/07/01 11:56:14;;;;;;;4.80;2.78;;;;;;;;;;4950673;29;20233;-73
2022/07/01 11:58:44;;;;;;;5.68;3.10;;;;;;;;;;4954396;28;20715;-74
2022/07/01 12:01:13;;;;;;;2.72;2.47;;;;;;;;;;4954703;29;20293;-73
2022/07/01 12:03:43;;;;;;;3.50;2.70;;;;;;;;;;4954165;28;20203;-73
2022/07/01 12:06:12;;;;;;;3.47;2.90;;;;;;;;;;4955368;28;20237;-73
2022/07/01 12:08:44;;;;;;;3.60;2.92;;;;;;;;;;4957859;28;20236;-73
2022/07/01 12:11:13;;;;;;;4.32;2.90;;;;;;;;;;4957027;29;20246;-73
2022/07/01 12:13:46;;;;;;;4.28;3.05;;;;;;;;;;4957643;28;20294;-73
2022/07/01 12:16:15;;;;;;;3.67;3.38;;;;;;;;;;4957721;29;20317;-73
2022/07/01 12:18:53;;;;;;;3.90;3.15;;;;;;;;;;4957582;28;20206;-74
2022/07/01 12:21:22;;;;;;;3.95;3.10;;;;;;;;;;4956918;28;20369;-73
2022/07/01 12:24:09;;;;;;;3.92;3.40;;;;;;;;;;4958176;29;20247;-74
2022/07/01 12:26:48;;;;;;;6.40;3.20;;;;;;;;;;4957778;28;20203;-73
2022/07/01 12:29:17;;;;;;;3.70;3.40;;;;;;;;;;4957435;29;20236;-73
2022/07/01 12:31:55;;;;;;;4.78;3.25;;;;;;;;;;4957925;28;20210;-73
2022/07/01 12:34:24;;;;;;;3.72;3.38;;;;;;;;;;4957481;28;20309;-74
2022/07/01 12:36:52;;;;;;;3.90;2.92;;;;;;;;;;4956592;28;20211;-74
2022/07/01 12:39:22;;;;;;;3.80;3.17;;;;;;;;;;4957583;28;20739;-74
2022/07/01 12:41:51;;;;;;;8.68;3.22;;;;;;;;;;4957879;29;20710;-73
2022/07/01 12:44:23;;;;;;;5.82;3.20;;;;;;;;;;4957468;28;20289;-74
2022/07/01 12:46:52;;;;;;;3.65;3.30;;;;;;;;;;4957259;28;20210;-74
2022/07/01 12:49:22;;;;;;;3.75;3.40;;;;;;;;;;4957356;28;20695;-74
2022/07/01 12:51:50;;;;;;;5.05;3.65;;;;;;;;;;4955386;28;20234;-74
2022/07/01 12:54:34;;;;;;;3.83;3.10;;;;;;;;;;4956978;28;20230;-74
2022/07/01 12:57:02;;;;;;;3.67;3.30;;;;;;;;;;4957176;28;20202;-74
2022/07/01 12:59:31;;;;;;;4.57;3.03;;;;;;;;;;4957932;28;20693;-74
2022/07/01 13:02:01;;;;;;;7.45;3.38;;;;;;;;;;4956895;28;20206;-73
2022/07/01 13:04:32;;;;;;;3.80;3.00;;;;;;;;;;4957154;28;20233;-73
2022/07/01 13:07:00;;;;;;;5.97;2.83;;;;;;;;;;4956929;29;20580;-73
2022/07/01 13:09:29;;;;;;;4.22;3.20;;;;;;;;;;4957154;28;20289;-73
2022/07/01 13:12:06;;;;;;;4.57;3.40;;;;;;;;;;4957051;29;20817;-74
2022/07/01 13:14:35;;;;;;;5.68;2.88;;;;;;;;;;4957161;29;20234;-73
2022/07/01 13:17:06;;;;;;;4.32;3.03;;;;;;;;;;4956923;28;20207;-73
2022/07/01 13:19:36;;;;;;;4.05;3.00;;;;;;;;;;4955583;29;20199;-74
2022/07/01 13:22:05;;;;;;;4.30;3.10;;;;;;;;;;4956708;28;20206;-74
2022/07/01 13:24:33;;;;;;;5.53;3.28;;;;;;;;;;4956079;28;20301;-74
2022/07/01 13:27:02;;;;;;;3.90;3.30;;;;;;;;;;4958884;28;20668;-73
2022/07/01 13:29:32;;;;;;;5.07;3.20;;;;;;;;;;4956553;28;20250;-73
2022/07/01 13:32:00;;;;;;;3.67;3.20;;;;;;;;;;4955554;28;20207;-73
2022/07/01 13:34:29;;;;;;;6.38;3.28;;;;;;;;;;4956370;29;20230;-74
2022/07/01 13:36:57;;;;;;;3.83;3.00;;;;;;;;;;4955963;28;20210;-74
2022/07/01 13:39:26;;;;;;;4.65;3.05;;;;;;;;;;4956818;28;20202;-73
2022/07/01 13:41:55;;;;;;;3.95;3.35;;;;;;;;;;4956537;28;20246;-74
2022/07/01 13:44:24;;;;;;;3.47;3.00;;;;;;;;;;4956220;28;20230;-73
2022/07/01 13:46:54;;;;;;;3.80;2.88;;;;;;;;;;4954397;28;20218;-73
2022/07/01 13:49:23;;;;;;;3.92;2.83;;;;;;;;;;4956189;28;21048;-74
2022/07/01 13:51:51;;;;;;;4.28;3.10;;;;;;;;;;4957451;28;20218;-77
2022/07/01 13:54:20;;;;;;;3.60;3.28;;;;;;;;;;4956305;28;20226;-77
2022/07/01 13:56:48;;;;;;;3.47;2.97;;;;;;;;;;4956204;28;20210;-76
2022/07/01 13:59:17;;;;;;;4.53;3.13;;;;;;;;;;4956358;28;20214;-76
2022/07/01 14:01:45;;;;;;;3.95;3.45;;;;;;;;;;4955636;28;20206;-77
2022/07/01 14:04:15;;;;;;;3.92;2.78;;;;;;;;;;4955959;28;20626;-76
2022/07/01 14:06:43;;;;;;;3.67;2.78;;;;;;;;;;4956515;28;20289;-77
2022/07/01 14:09:12;;;;;;;3.15;2.80;;;;;;;;;;4955752;28;20273;-77
2022/07/01 14:11:40;;;;;;;4.30;2.78;;;;;;;;;;4954713;28;20225;-76
2022/07/01 14:14:09;;;;;;;4.40;2.90;;;;;;;;;;4954249;28;20626;-75
2022/07/01 14:16:37;;;;;;;3.80;2.42;;;;;;;;;;4954153;28;20612;-76
2022/07/01 14:19:06;;;;;;;3.13;2.75;;;;;;;;;;4955511;28;20207;-76
2022/07/01 14:21:36;;;;;;;3.95;2.42;;;;;;;;;;4955844;28;20579;-77
2022/07/01 14:24:05;;;;;;;4.10;2.53;;;;;;;;;;4955859;28;20217;-77
2022/07/01 14:26:33;;;;;;;2.50;2.03;;;;;;;;;;4955383;28;20210;-76
2022/07/01 14:29:02;;;;;;;2.28;2.08;;;;;;;;;;4955817;28;20211;-76
2022/07/01 14:31:30;;;;;;;3.42;2.25;;;;;;;;;;4955329;28;20584;-77
2022/07/01 14:33:59;;;;;;;4.05;2.00;;;;;;;;;;4955937;28;20212;-76
2022/07/01 14:36:27;;;;;;;2.92;1.70;;;;;;;;;;4955453;28;20202;-76
2022/07/01 14:38:57;;;;;;;2.08;1.88;;;;;;;;;;4955428;28;20206;-77
2022/07/01 14:41:25;;;;;;;3.70;2.00;;;;;;;;;;4955550;28;20202;-76
2022/07/01 14:43:54;;;;;;;2.92;1.88;;;;;;;;;;4955196;28;20206;-77
2022/07/01 14:46:22;;;;;;;2.80;2.00;;;;;;;;;;4943342;28;20243;-76
2022/07/01 14:48:51;;;;;;;2.28;1.80;;;;;;;;;;4952913;29;20206;-76
2022/07/01 14:51:19;;;;;;;3.50;1.80;;;;;;;;;;4955212;28;20226;-77
2022/07/01 14:53:48;;;;;;;2.22;1.90;;;;;;;;;;4955006;29;20589;-76
2022/07/01 14:56:24;;;;;;;2.80;1.70;;;;;;;;;;4955178;29;20241;-76
2022/07/01 14:58:53;;;;;;;3.67;2.13;;;;;;;;;;4955611;29;20555;-76
2022/07/01 15:01:21;;;;;;;2.20;1.60;;;;;;;;;;4955559;29;20202;-75
2022/07/01 15:03:50;;;;;;;2.30;1.80;;;;;;;;;;4955044;28;20265;-76
2022/07/01 15:06:18;;;;;;;2.17;1.70;;;;;;;;;;4955091;28;20237;-77
2022/07/01 15:08:47;;;;;;;2.55;1.75;;;;;;;;;;4955408;28;20209;-77